createdAt,value
2022-10-31T00:01:37.282Z,94.92
2022-10-31T00:04:07.762Z,96.78
2022-10-31T00:06:36.084Z,97.17
2022-10-31T00:09:06.510Z,98.52
2022-10-31T00:11:34.715Z,98.48
2022-10-31T00:14:03.556Z,99.94
2022-10-31T00:16:32.172Z,100.00
2022-10-31T00:19:03.205Z,100.00
2022-10-31T00:21:33.640Z,100.00
2022-10-31T00:24:02.795Z,100.00
2022-10-31T00:26:32.126Z,99.08
2022-10-31T00:29:00.707Z,98.30
2022-10-31T00:31:29.164Z,95.72
2022-10-31T00:33:57.530Z,94.91
2022-10-31T00:36:28.466Z,94.14
2022-10-31T00:38:59.874Z,94.67
2022-10-31T00:41:28.147Z,94.85
2022-10-31T00:43:56.435Z,94.48
2022-10-31T00:46:25.783Z,97.02
2022-10-31T00:48:54.225Z,97.03
2022-10-31T00:51:22.469Z,96.47
2022-10-31T00:53:50.675Z,96.49
2022-10-31T00:56:20.830Z,95.46
2022-10-31T00:58:49.637Z,96.36
2022-10-31T01:01:17.910Z,95.29
2022-10-31T01:03:46.885Z,93.94
2022-10-31T01:06:17.910Z,93.85
2022-10-31T01:08:46.109Z,93.04
2022-10-31T01:11:18.501Z,93.61
2022-10-31T01:13:49.511Z,93.29
2022-10-31T01:16:19.998Z,94.62
2022-10-31T01:18:48.932Z,94.21
2022-10-31T01:21:20.310Z,94.20
2022-10-31T01:23:51.190Z,95.18
2022-10-31T01:26:22.034Z,94.90
2022-10-31T01:28:55.185Z,95.04
2022-10-31T01:31:26.659Z,94.73
2022-10-31T01:33:55.769Z,95.36
2022-10-31T01:36:27.575Z,95.44
2022-10-31T01:38:59.557Z,95.80
2022-10-31T01:41:31.751Z,96.56
2022-10-31T01:44:04.099Z,97.71
2022-10-31T01:46:37.386Z,99.13
2022-10-31T01:49:13.613Z,98.72
2022-10-31T01:51:48.284Z,98.50
2022-10-31T01:54:20.630Z,98.59
2022-10-31T01:56:53.889Z,97.94
2022-10-31T01:59:27.608Z,98.18
2022-10-31T02:01:56.572Z,99.35
2022-10-31T02:04:27.176Z,98.65
2022-10-31T02:07:00.868Z,98.10
2022-10-31T02:09:31.397Z,97.34
2022-10-31T02:12:01.566Z,96.66
2022-10-31T02:14:33.383Z,94.40
2022-10-31T02:17:01.612Z,94.62
2022-10-31T02:19:39.899Z,93.93
2022-10-31T02:22:15.578Z,95.45
2022-10-31T02:24:56.196Z,95.58
2022-10-31T02:27:43.323Z,95.41
2022-10-31T02:30:16.590Z,95.54
2022-10-31T02:32:58.028Z,95.80
2022-10-31T02:35:39.484Z,94.91
2022-10-31T02:38:35.989Z,96.02
2022-10-31T02:41:12.798Z,95.41
2022-10-31T02:44:04.423Z,95.19
2022-10-31T02:46:40.470Z,94.03
2022-10-31T02:49:22.255Z,93.81
2022-10-31T02:51:50.683Z,93.54
2022-10-31T02:54:22.215Z,94.07
2022-10-31T02:56:59.666Z,94.21
2022-10-31T02:59:31.055Z,94.09
2022-10-31T03:02:35.482Z,94.55
2022-10-31T03:05:54.505Z,94.58
2022-10-31T03:08:37.455Z,95.06
2022-10-31T03:11:09.255Z,95.27
2022-10-31T03:13:47.297Z,94.45
2022-10-31T03:16:21.102Z,95.27
2022-10-31T03:18:54.483Z,94.72
2022-10-31T03:21:26.053Z,95.00
2022-10-31T03:23:57.018Z,94.31
2022-10-31T03:26:26.149Z,94.27
2022-10-31T03:28:59.138Z,94.17
2022-10-31T03:31:33.020Z,94.37
2022-10-31T03:34:03.103Z,95.05
2022-10-31T03:36:34.462Z,95.79
2022-10-31T03:39:06.720Z,95.97
2022-10-31T03:41:43.160Z,97.28
2022-10-31T03:44:17.852Z,98.81
2022-10-31T03:46:49.784Z,100.00
2022-10-31T03:49:18.687Z,100.00
2022-10-31T03:51:52.136Z,100.00
2022-10-31T03:54:27.700Z,100.00
2022-10-31T03:57:03.359Z,100.00
2022-10-31T03:59:37.798Z,100.00
2022-10-31T04:02:12.967Z,100.00
2022-10-31T04:04:42.591Z,100.00
2022-10-31T04:07:12.582Z,98.95
2022-10-31T04:09:46.940Z,97.52
2022-10-31T04:12:18.299Z,96.70
2022-10-31T04:15:01.090Z,96.16
2022-10-31T04:17:35.308Z,96.22
2022-10-31T04:20:04.655Z,96.56
2022-10-31T04:22:32.959Z,96.20
2022-10-31T04:25:03.108Z,95.69
2022-10-31T04:27:31.345Z,96.04
2022-10-31T04:30:00.450Z,95.62
2022-10-31T04:32:29.861Z,95.88
2022-10-31T04:34:58.089Z,96.13
2022-10-31T04:37:26.380Z,96.23
2022-10-31T04:39:54.661Z,96.88
2022-10-31T04:42:59.905Z,96.85
2022-10-31T04:45:30.419Z,97.00
2022-10-31T04:47:58.947Z,96.79
2022-10-31T04:50:52.573Z,97.46
2022-10-31T04:53:20.887Z,97.42
2022-10-31T04:56:09.559Z,97.01
2022-10-31T04:58:44.109Z,97.00
2022-10-31T05:01:18.202Z,96.17
2022-10-31T05:03:47.031Z,96.10
2022-10-31T05:06:15.283Z,96.04
2022-10-31T05:08:48.540Z,95.40
2022-10-31T05:11:17.037Z,95.38
2022-10-31T05:13:47.533Z,95.00
2022-10-31T05:16:15.996Z,95.55
2022-10-31T05:19:12.976Z,96.21
2022-10-31T05:22:09.837Z,96.61
2022-10-31T05:24:39.714Z,96.54
2022-10-31T05:27:07.945Z,96.03
2022-10-31T05:29:37.744Z,96.56
2022-10-31T05:32:06.066Z,97.04
2022-10-31T05:34:52.571Z,97.21
2022-10-31T05:37:41.222Z,98.06
2022-10-31T05:40:12.633Z,96.82
2022-10-31T05:42:41.785Z,97.96
2022-10-31T05:45:14.622Z,97.97
2022-10-31T05:47:53.799Z,97.40
2022-10-31T05:50:44.559Z,96.52
2022-10-31T05:53:13.333Z,96.65
2022-10-31T05:55:42.608Z,96.96
2022-10-31T05:58:14.482Z,96.42
2022-10-31T06:00:51.616Z,96.94
2022-10-31T06:03:20.309Z,97.17
2022-10-31T06:05:54.942Z,97.99
2022-10-31T06:08:26.378Z,97.78
2022-10-31T06:10:56.700Z,98.40
2022-10-31T06:13:47.595Z,98.77
2022-10-31T06:16:23.164Z,99.66
2022-10-31T06:18:52.783Z,100.00
2022-10-31T06:21:21.096Z,100.00
2022-10-31T06:23:52.648Z,100.00
2022-10-31T06:26:44.787Z,100.00
2022-10-31T06:29:13.133Z,100.00
2022-10-31T06:32:02.542Z,100.00
2022-10-31T06:34:32.266Z,100.00
2022-10-31T06:37:01.800Z,100.00
2022-10-31T06:39:31.917Z,99.94
2022-10-31T06:42:00.176Z,99.84
2022-10-31T06:44:29.483Z,99.79
2022-10-31T06:47:21.940Z,99.58
2022-10-31T06:50:08.817Z,99.90
2022-10-31T06:52:37.109Z,100.00
2022-10-31T06:55:07.261Z,100.00
2022-10-31T06:57:35.832Z,100.00
2022-10-31T07:00:31.914Z,100.00
2022-10-31T07:03:09.587Z,100.00
2022-10-31T07:05:38.893Z,100.00
2022-10-31T07:08:21.733Z,100.00
2022-10-31T07:10:55.121Z,100.00
2022-10-31T07:13:26.531Z,100.00
2022-10-31T07:16:05.597Z,100.00
2022-10-31T07:18:37.843Z,100.00
2022-10-31T07:21:06.855Z,100.00
2022-10-31T07:23:35.220Z,100.00
2022-10-31T07:26:23.392Z,100.00
2022-10-31T07:28:51.624Z,100.00
2022-10-31T07:31:23.408Z,100.00
2022-10-31T07:33:54.923Z,100.00
2022-10-31T07:36:43.351Z,100.00
2022-10-31T07:39:14.394Z,100.00
2022-10-31T07:41:42.930Z,100.00
2022-10-31T07:44:38.916Z,100.00
2022-10-31T07:47:25.591Z,100.00
2022-10-31T07:50:31.316Z,100.00
2022-10-31T07:53:37.661Z,100.00
2022-10-31T07:56:15.956Z,100.00
2022-10-31T07:58:44.728Z,100.00
2022-10-31T08:04:02.161Z,100.00
2022-10-31T08:06:50.523Z,100.00
2022-10-31T08:09:28.585Z,100.00
2022-10-31T08:12:00.185Z,100.00
2022-10-31T08:14:29.164Z,100.00
2022-10-31T08:16:58.044Z,100.00
2022-10-31T08:19:32.150Z,100.00
2022-10-31T08:22:01.728Z,100.00
2022-10-31T08:24:30.663Z,100.00
2022-10-31T08:27:00.256Z,100.00
2022-10-31T08:29:28.552Z,100.00
2022-10-31T08:31:56.826Z,100.00
2022-10-31T08:34:43.730Z,100.00
2022-10-31T08:37:39.312Z,100.00
2022-10-31T08:40:09.448Z,100.00
2022-10-31T08:42:37.644Z,100.00
2022-10-31T08:45:07.039Z,100.00
2022-10-31T08:47:35.701Z,100.00
2022-10-31T08:50:04.208Z,100.00
2022-10-31T08:52:58.738Z,100.00
2022-10-31T08:55:22.913Z,99.51
2022-10-31T08:58:07.400Z,100.00
2022-10-31T09:00:45.525Z,100.00
2022-10-31T09:03:21.632Z,100.00
2022-10-31T09:05:57.562Z,100.00
2022-10-31T09:08:27.835Z,100.00
2022-10-31T09:11:00.381Z,100.00
2022-10-31T09:13:47.106Z,100.00
2022-10-31T09:16:33.801Z,100.00
2022-10-31T09:19:03.536Z,100.00
2022-10-31T09:21:33.417Z,100.00
2022-10-31T09:24:01.647Z,99.95
2022-10-31T09:26:31.573Z,100.00
2022-10-31T09:29:11.364Z,100.00
2022-10-31T09:31:44.794Z,98.70
2022-10-31T09:34:28.274Z,96.63
2022-10-31T09:37:08.220Z,96.66
2022-10-31T09:39:37.442Z,96.83
2022-10-31T09:42:39.342Z,96.43
2022-10-31T09:45:23.748Z,96.42
2022-10-31T09:48:15.320Z,93.82
2022-10-31T09:51:03.668Z,93.94
2022-10-31T09:53:52.493Z,93.49
2022-10-31T09:56:25.475Z,93.98
2022-10-31T09:59:02.071Z,92.64
2022-10-31T10:01:42.499Z,92.98
2022-10-31T10:04:32.511Z,93.27
2022-10-31T10:07:16.812Z,92.44
2022-10-31T10:09:46.577Z,91.34
2022-10-31T10:13:09.341Z,89.03
2022-10-31T10:16:03.246Z,89.23
2022-10-31T10:18:45.943Z,88.56
2022-10-31T10:21:28.351Z,88.15
2022-10-31T10:24:15.122Z,88.52
2022-10-31T10:26:52.472Z,89.25
2022-10-31T10:29:35.407Z,88.39
2022-10-31T10:32:13.711Z,89.42
2022-10-31T10:34:47.675Z,88.11
2022-10-31T10:37:28.116Z,87.62
2022-10-31T10:40:09.201Z,86.75
2022-10-31T10:42:55.882Z,85.97
2022-10-31T10:45:41.766Z,85.33
2022-10-31T10:48:18.780Z,85.38
2022-10-31T10:50:51.015Z,84.72
2022-10-31T10:53:50.089Z,85.13
2022-10-31T10:56:22.960Z,84.62
2022-10-31T10:58:58.295Z,84.09
2022-10-31T11:01:53.248Z,83.74
2022-10-31T11:04:32.827Z,83.05
2022-10-31T11:07:05.561Z,82.74
2022-10-31T11:09:34.868Z,82.67
2022-10-31T11:12:10.332Z,82.28
2022-10-31T11:14:46.860Z,81.74
2022-10-31T11:17:27.548Z,81.30
2022-10-31T11:20:06.708Z,80.75
2022-10-31T11:22:35.005Z,79.17
2022-10-31T11:25:13.695Z,79.06
2022-10-31T11:27:41.949Z,78.66
2022-10-31T11:30:14.718Z,77.01
2022-10-31T11:32:50.060Z,77.92
2022-10-31T11:35:22.261Z,77.19
2022-10-31T11:37:53.467Z,77.30
2022-10-31T11:40:25.063Z,76.61
2022-10-31T11:42:55.257Z,75.54
2022-10-31T11:45:34.590Z,75.95
2022-10-31T11:48:07.549Z,75.33
2022-10-31T11:50:41.630Z,76.60
2022-10-31T11:53:17.773Z,75.56
2022-10-31T11:55:47.926Z,75.79
2022-10-31T11:58:24.311Z,76.26
2022-10-31T12:00:55.089Z,75.17
2022-10-31T12:03:44.904Z,76.48
2022-10-31T12:06:24.676Z,77.93
2022-10-31T12:08:53.003Z,78.31
2022-10-31T12:11:43.127Z,77.59
2022-10-31T12:14:26.114Z,77.78
2022-10-31T12:17:01.949Z,78.86
2022-10-31T12:19:43.917Z,79.07
2022-10-31T12:22:23.490Z,77.42
2022-10-31T12:25:21.305Z,76.93
2022-10-31T12:28:16.663Z,77.59
2022-10-31T12:30:59.555Z,77.04
2022-10-31T12:33:48.887Z,78.11
2022-10-31T12:36:35.260Z,78.52
2022-10-31T12:39:34.272Z,79.20
2022-10-31T12:42:14.099Z,79.87
2022-10-31T12:45:05.325Z,77.48
2022-10-31T12:48:02.064Z,78.84
2022-10-31T12:50:49.437Z,78.54
2022-10-31T12:53:32.171Z,77.13
2022-10-31T12:56:22.111Z,78.18
2022-10-31T12:58:57.799Z,77.51
2022-10-31T13:01:31.806Z,76.35
2022-10-31T13:04:06.582Z,78.18
2022-10-31T13:06:44.481Z,77.14
2022-10-31T13:09:19.260Z,76.21
2022-10-31T13:11:55.597Z,74.23
2022-10-31T13:14:29.116Z,76.41
2022-10-31T13:16:58.381Z,74.68
2022-10-31T13:19:32.533Z,75.65
2022-10-31T13:22:08.316Z,74.86
2022-10-31T13:24:41.572Z,74.27
2022-10-31T13:27:21.197Z,72.86
2022-10-31T13:30:03.028Z,72.44
2022-10-31T13:32:43.128Z,73.54
2022-10-31T13:35:20.799Z,74.65
2022-10-31T13:37:59.580Z,74.49
2022-10-31T13:40:40.744Z,75.75
2022-10-31T13:43:34.997Z,75.97
2022-10-31T13:46:03.350Z,76.55
2022-10-31T13:48:42.198Z,77.11
2022-10-31T13:51:12.778Z,76.99
2022-10-31T13:53:46.434Z,77.76
2022-10-31T13:56:23.100Z,78.81
2022-10-31T13:59:15.963Z,79.48
2022-10-31T14:01:51.807Z,80.31
2022-10-31T14:04:25.848Z,78.70
2022-10-31T14:07:06.997Z,79.96
2022-10-31T14:09:39.203Z,78.98
2022-10-31T14:12:13.669Z,81.17
2022-10-31T14:14:52.065Z,80.87
2022-10-31T14:17:24.380Z,80.48
2022-10-31T14:20:20.450Z,81.01
2022-10-31T14:22:48.828Z,81.01
2022-10-31T14:25:33.626Z,81.16
2022-10-31T14:28:05.298Z,81.57
2022-10-31T14:30:35.254Z,81.42
2022-10-31T14:33:20.523Z,81.53
2022-10-31T14:35:57.652Z,82.51
2022-10-31T14:38:49.674Z,82.55
2022-10-31T14:41:45.531Z,82.84
2022-10-31T14:44:44.012Z,83.37
2022-10-31T14:47:26.895Z,83.40
2022-10-31T14:50:22.375Z,81.81
2022-10-31T14:52:55.146Z,79.22
2022-10-31T14:55:25.626Z,76.78
2022-10-31T14:58:00.568Z,75.16
2022-10-31T15:00:30.405Z,72.49
2022-10-31T15:03:41.360Z,73.58
2022-10-31T15:06:17.980Z,74.12
2022-10-31T15:08:48.677Z,75.74
2022-10-31T15:11:20.569Z,75.88
2022-10-31T15:13:50.945Z,75.95
2022-10-31T15:16:22.946Z,76.57
2022-10-31T15:18:56.986Z,77.23
2022-10-31T15:21:29.156Z,77.46
2022-10-31T15:24:00.374Z,78.13
2022-10-31T15:26:37.017Z,78.89
2022-10-31T15:29:12.484Z,79.39
2022-10-31T15:31:40.911Z,79.47
2022-10-31T15:34:23.683Z,80.75
2022-10-31T15:36:52.137Z,80.68
2022-10-31T15:39:20.973Z,81.29
2022-10-31T15:41:55.149Z,81.65
2022-10-31T15:44:30.128Z,82.53
2022-10-31T15:47:00.369Z,82.73
2022-10-31T15:49:35.889Z,83.15
2022-10-31T15:52:13.088Z,83.74
2022-10-31T15:54:51.454Z,83.95
2022-10-31T15:57:20.046Z,84.55
2022-10-31T15:59:50.916Z,84.69
2022-10-31T16:02:23.961Z,85.62
2022-10-31T16:04:57.574Z,85.57
2022-10-31T16:07:26.885Z,86.23
2022-10-31T16:09:58.802Z,86.42
2022-10-31T16:12:37.744Z,87.09
2022-10-31T16:15:07.542Z,87.55
2022-10-31T16:17:36.048Z,88.18
2022-10-31T16:20:08.419Z,88.97
2022-10-31T16:22:38.919Z,89.06
2022-10-31T16:25:13.424Z,89.74
2022-10-31T16:27:42.156Z,90.68
2022-10-31T16:30:39.664Z,92.14
2022-10-31T16:33:26.827Z,91.77
2022-10-31T16:36:09.518Z,91.63
2022-10-31T16:38:44.298Z,92.57
2022-10-31T16:41:12.492Z,93.04
2022-10-31T16:43:40.739Z,92.63
2022-10-31T16:46:17.092Z,92.13
2022-10-31T16:48:45.315Z,91.66
2022-10-31T16:51:15.106Z,92.68
2022-10-31T16:53:46.685Z,94.24
2022-10-31T16:56:19.647Z,94.33
2022-10-31T16:58:47.894Z,94.22
2022-10-31T17:01:40.195Z,93.19
2022-10-31T17:04:15.267Z,92.85
2022-10-31T17:06:45.313Z,93.28
2022-10-31T17:09:13.531Z,92.89
2022-10-31T17:11:49.656Z,94.28
2022-10-31T17:14:18.789Z,95.17
2022-10-31T17:16:47.115Z,95.04
2022-10-31T17:19:15.695Z,95.58
2022-10-31T17:21:45.317Z,95.76
2022-10-31T17:24:15.712Z,95.22
2022-10-31T17:26:44.288Z,94.81
2022-10-31T17:29:12.835Z,93.51
2022-10-31T17:31:41.098Z,93.59
2022-10-31T17:34:10.204Z,92.49
2022-10-31T17:36:38.765Z,92.92
2022-10-31T17:39:09.697Z,93.17
2022-10-31T17:41:37.941Z,93.81
2022-10-31T17:44:06.466Z,93.71
2022-10-31T17:46:35.011Z,93.49
2022-10-31T17:49:04.992Z,93.45
2022-10-31T17:51:33.279Z,94.33
2022-10-31T17:54:01.632Z,96.38
2022-10-31T17:56:31.172Z,96.65
2022-10-31T17:58:59.608Z,95.47
2022-10-31T18:01:27.990Z,94.98
2022-10-31T18:03:56.287Z,94.62
2022-10-31T18:06:24.540Z,95.67
2022-10-31T18:08:52.802Z,95.62
2022-10-31T18:11:23.147Z,96.07
2022-10-31T18:13:58.629Z,96.03
2022-10-31T18:16:27.963Z,96.57
2022-10-31T18:19:01.677Z,98.20
2022-10-31T18:21:30.441Z,99.33
2022-10-31T18:24:02.865Z,100.00
2022-10-31T18:26:31.157Z,100.00
2022-10-31T18:29:01.631Z,100.00
2022-10-31T18:31:30.253Z,100.00
2022-10-31T18:33:58.933Z,100.00
2022-10-31T18:36:27.239Z,100.00
2022-10-31T18:38:55.768Z,100.00
2022-10-31T18:41:24.247Z,100.00
2022-10-31T18:43:56.021Z,100.00
2022-10-31T18:46:25.630Z,99.27
2022-10-31T18:48:54.142Z,99.97
2022-10-31T18:51:22.886Z,100.00
2022-10-31T18:53:52.949Z,100.00
2022-10-31T18:56:21.886Z,100.00
2022-10-31T18:58:50.836Z,100.00
2022-10-31T19:01:21.296Z,100.00
2022-10-31T19:03:56.297Z,100.00
2022-10-31T19:06:35.000Z,100.00
2022-10-31T19:09:09.700Z,98.61
2022-10-31T19:11:39.886Z,96.05
2022-10-31T19:14:10.943Z,95.62
2022-10-31T19:16:39.219Z,95.29
2022-10-31T19:19:09.949Z,96.81
2022-10-31T19:21:38.255Z,96.89
2022-10-31T19:24:07.147Z,97.13
2022-10-31T19:26:35.789Z,98.17
2022-10-31T19:29:04.391Z,99.03
2022-10-31T19:31:32.699Z,99.36
2022-10-31T19:34:00.909Z,100.00
2022-10-31T19:36:30.628Z,100.00
2022-10-31T19:38:58.851Z,100.00
2022-10-31T19:41:29.811Z,99.67
2022-10-31T19:44:01.131Z,100.00
2022-10-31T19:49:17.884Z,100.00
2022-10-31T19:51:47.489Z,100.00
2022-10-31T19:54:15.820Z,100.00
2022-10-31T19:56:44.086Z,100.00
2022-10-31T19:59:12.337Z,100.00
2022-10-31T20:01:40.671Z,100.00
2022-10-31T20:04:08.964Z,100.00
2022-10-31T20:06:39.675Z,100.00
2022-10-31T20:09:13.493Z,100.00
2022-10-31T20:11:43.714Z,100.00
2022-10-31T20:14:14.813Z,100.00
2022-10-31T20:16:43.603Z,100.00
2022-10-31T20:19:11.900Z,100.00
2022-10-31T20:21:41.646Z,100.00
2022-10-31T20:24:12.098Z,100.00
2022-10-31T20:26:41.874Z,100.00
2022-10-31T20:29:15.897Z,100.00
2022-10-31T20:31:45.567Z,100.00
2022-10-31T20:34:14.620Z,100.00
2022-10-31T20:36:43.005Z,100.00
2022-10-31T20:39:12.819Z,100.00
2022-10-31T20:41:41.053Z,100.00
2022-10-31T20:44:09.406Z,100.00
2022-10-31T20:46:37.693Z,100.00
2022-10-31T20:49:05.962Z,100.00
2022-10-31T20:51:34.314Z,100.00
2022-10-31T20:54:02.568Z,100.00
2022-10-31T20:56:32.497Z,100.00
2022-10-31T20:59:00.748Z,100.00
2022-10-31T21:01:31.469Z,100.00
2022-10-31T21:04:11.938Z,100.00
2022-10-31T21:06:43.012Z,100.00
2022-10-31T21:09:14.956Z,100.00
2022-10-31T21:11:45.073Z,100.00
2022-10-31T21:14:13.557Z,100.00
2022-10-31T21:16:41.815Z,100.00
2022-10-31T21:19:10.053Z,100.00
2022-10-31T21:21:38.459Z,100.00
2022-10-31T21:24:10.278Z,100.00
2022-10-31T21:26:42.379Z,100.00
2022-10-31T21:29:13.626Z,100.00
2022-10-31T21:31:42.684Z,100.00
2022-10-31T21:34:11.632Z,100.00
2022-10-31T21:36:39.909Z,100.00
2022-10-31T21:39:09.888Z,100.00
2022-10-31T21:41:38.368Z,100.00
2022-10-31T21:44:07.075Z,100.00
2022-10-31T21:46:38.545Z,100.00
2022-10-31T21:49:06.873Z,100.00
2022-10-31T21:51:36.793Z,100.00
2022-10-31T21:54:23.240Z,100.00
2022-10-31T21:56:52.011Z,100.00
2022-10-31T21:59:20.960Z,100.00
2022-10-31T22:01:51.873Z,100.00
2022-10-31T22:04:21.109Z,100.00
2022-10-31T22:06:49.617Z,100.00
2022-10-31T22:09:19.649Z,100.00
2022-10-31T22:11:48.294Z,100.00
2022-10-31T22:14:16.862Z,100.00
2022-10-31T22:16:45.134Z,100.00
2022-10-31T22:19:15.649Z,100.00
2022-10-31T22:21:46.396Z,100.00
2022-10-31T22:24:15.199Z,100.00
2022-10-31T22:26:43.684Z,100.00
2022-10-31T22:29:15.548Z,100.00
2022-10-31T22:31:50.574Z,100.00
2022-10-31T22:34:23.089Z,100.00
2022-10-31T22:36:51.303Z,100.00
2022-10-31T22:39:19.584Z,100.00
2022-10-31T22:41:47.865Z,100.00
2022-10-31T22:44:16.092Z,100.00
2022-10-31T22:46:44.366Z,100.00
2022-10-31T22:49:16.036Z,100.00
2022-10-31T22:51:46.363Z,100.00
2022-10-31T22:54:17.613Z,100.00
2022-10-31T22:56:46.676Z,100.00
2022-10-31T22:59:17.036Z,100.00
2022-10-31T23:01:46.199Z,100.00
2022-10-31T23:04:15.506Z,100.00
2022-10-31T23:06:45.825Z,100.00
2022-10-31T23:09:18.273Z,100.00
2022-10-31T23:11:47.091Z,100.00
2022-10-31T23:14:19.440Z,100.00
2022-10-31T23:16:50.552Z,100.00
2022-10-31T23:19:22.467Z,100.00
2022-10-31T23:21:55.960Z,100.00
2022-10-31T23:24:27.403Z,100.00
2022-10-31T23:27:06.097Z,100.00
2022-10-31T23:29:37.537Z,100.00
2022-10-31T23:32:07.566Z,100.00
2022-10-31T23:34:35.749Z,100.00
2022-10-31T23:37:05.310Z,100.00
2022-10-31T23:39:33.561Z,100.00
2022-10-31T23:42:01.731Z,100.00
2022-10-31T23:44:29.977Z,100.00
2022-10-31T23:46:58.143Z,100.00
2022-10-31T23:49:26.255Z,100.00
2022-10-31T23:51:56.465Z,100.00
2022-10-31T23:54:27.269Z,100.00
2022-10-31T23:56:56.159Z,100.00
2022-10-31T23:59:24.387Z,100.00
